Αρχική σελίδα
METAR-TAF:

METAR-TAF

Αεροδρόμια :

Madera Municipal Airport

Madera, Καλιφόρνια, Ηνωμένες Πολιτείες Αμερικής

γεωγραφικό πλάτος: 36-59-12N, γεωγραφικό μήκος: 120-06-39W, υψόμετρο: 77 μ

Παρών καιρός

Η αναφορά έγινε 38 λεπτά πριν, στις 18:53 UTC
Ήπιος άνεμος
Θερμοκρασία 17°C
Υγρασία 29%
Πίεση 1020 hPa
Ορατότητα: 6.4 χλμ
Καθαρός ουρανός
καταχνιά

METAR: KMAE 181853Z AUTO 00000KT 4SM HZ CLR 17/M01 A3011 RMK AO2 SLP194 T01671011

Χρόνος: 11:31 (19:31 UTC)


TAF: λείπει

Μετεωρολογικές αναφορές και προγνώσεις για περισσότερα από 4000 αεροδρόμια (δελτία METAR και TAF).

Οι διαθέσιμοι σταθμοί απεικονίζονται στο χάρτη με κίτρινες και κόκκινες κουκκίδες.

Μετακινήστε το ποντίκι πάνω από τις κουκκίδες για να δείτε το όνομα του σταθμού.

Στη συνέχεια, κάντε κλικ για να δείτε τις μετεωρολογικές αναφορές και τις προγνώσεις καιρού.

Για να αλλάξετε το χάρτη: κάντε κλικ στα πράσινα κουμπιά με τον μαύρο σταυρό για να ζουμάρετε, στο πράσινο κουμπί με την παύλα για να αφαιρέσετε το ζουμ ή στα πράσινα βέλη για να αντιπαραβάλλετε χάρτες.


METAR-TAF: